sensor_id;sensor_type;location;lat;lon;timestamp;pressure;altitude;pressure_sealevel;temperature;humidity
62712;BME280;48772;55.586;37.730;2023-08-01T00:00:11;98697.91;;;19.48;100.00
62712;BME280;48772;55.586;37.730;2023-08-01T00:02:38;98682.66;;;19.41;100.00
62712;BME280;48772;55.586;37.730;2023-08-01T00:05:05;98684.97;;;19.44;100.00
62712;BME280;48772;55.586;37.730;2023-08-01T00:07:31;98680.41;;;19.38;100.00
62712;BME280;48772;55.586;37.730;2023-08-01T00:09:57;98675.97;;;19.30;100.00
62712;BME280;48772;55.586;37.730;2023-08-01T00:12:24;98678.28;;;19.27;100.00
62712;BME280;48772;55.586;37.730;2023-08-01T00:14:50;98671.97;;;19.20;100.00
62712;BME280;48772;55.586;37.730;2023-08-01T00:17:16;98680.69;;;19.22;100.00
62712;BME280;48772;55.586;37.730;2023-08-01T00:19:42;98679.81;;;19.15;100.00
62712;BME280;48772;55.586;37.730;2023-08-01T00:22:08;98689.00;;;19.20;100.00
62712;BME280;48772;55.586;37.730;2023-08-01T00:24:35;98699.59;;;19.15;100.00
62712;BME280;48772;55.586;37.730;2023-08-01T00:27:02;98705.78;;;19.09;100.00
62712;BME280;48772;55.586;37.730;2023-08-01T00:29:28;98706.63;;;19.10;100.00
62712;BME280;48772;55.586;37.730;2023-08-01T00:31:53;98695.59;;;19.05;100.00
62712;BME280;48772;55.586;37.730;2023-08-01T00:34:19;98705.09;;;19.01;100.00
62712;BME280;48772;55.586;37.730;2023-08-01T00:36:45;98709.25;;;18.97;100.00
62712;BME280;48772;55.586;37.730;2023-08-01T00:39:11;98711.31;;;18.95;100.00
62712;BME280;48772;55.586;37.730;2023-08-01T00:41:37;98706.31;;;18.92;100.00
62712;BME280;48772;55.586;37.730;2023-08-01T00:44:03;98698.59;;;18.89;100.00
62712;BME280;48772;55.586;37.730;2023-08-01T00:46:29;98709.66;;;18.94;100.00
62712;BME280;48772;55.586;37.730;2023-08-01T00:48:55;98690.00;;;18.79;100.00
62712;BME280;48772;55.586;37.730;2023-08-01T00:51:24;98708.38;;;18.90;100.00
62712;BME280;48772;55.586;37.730;2023-08-01T00:53:51;98679.63;;;18.76;100.00
62712;BME280;48772;55.586;37.730;2023-08-01T00:56:17;98698.75;;;18.81;100.00
62712;BME280;48772;55.586;37.730;2023-08-01T00:58:45;98711.50;;;18.87;100.00
62712;BME280;48772;55.586;37.730;2023-08-01T01:01:11;98717.91;;;18.86;100.00
62712;BME280;48772;55.586;37.730;2023-08-01T01:03:37;98710.84;;;18.85;100.00
62712;BME280;48772;55.586;37.730;2023-08-01T01:08:41;98699.97;;;18.72;100.00
62712;BME280;48772;55.586;37.730;2023-08-01T01:11:07;98707.03;;;18.73;100.00
62712;BME280;48772;55.586;37.730;2023-08-01T01:13:33;98711.63;;;18.79;100.00
62712;BME280;48772;55.586;37.730;2023-08-01T01:16:00;98717.47;;;18.82;100.00
62712;BME280;48772;55.586;37.730;2023-08-01T01:18:26;98710.44;;;18.88;100.00
62712;BME280;48772;55.586;37.730;2023-08-01T01:20:52;98689.19;;;18.78;100.00
62712;BME280;48772;55.586;37.730;2023-08-01T01:23:19;98711.53;;;18.93;100.00
62712;BME280;48772;55.586;37.730;2023-08-01T01:25:49;98696.94;;;18.88;100.00
62712;BME280;48772;55.586;37.730;2023-08-01T01:28:17;98705.88;;;18.88;100.00
62712;BME280;48772;55.586;37.730;2023-08-01T01:30:44;98697.34;;;18.85;100.00
62712;BME280;48772;55.586;37.730;2023-08-01T01:33:11;98710.25;;;18.89;100.00
62712;BME280;48772;55.586;37.730;2023-08-01T01:35:37;98705.44;;;18.85;100.00
62712;BME280;48772;55.586;37.730;2023-08-01T01:38:03;98705.19;;;18.80;100.00
62712;BME280;48772;55.586;37.730;2023-08-01T01:40:32;98695.91;;;18.61;100.00
62712;BME280;48772;55.586;37.730;2023-08-01T01:42:59;98713.59;;;18.64;100.00
62712;BME280;48772;55.586;37.730;2023-08-01T01:45:25;98721.31;;;18.67;100.00
62712;BME280;48772;55.586;37.730;2023-08-01T01:47:52;98717.34;;;18.63;100.00
62712;BME280;48772;55.586;37.730;2023-08-01T01:50:18;98717.53;;;18.61;100.00
62712;BME280;48772;55.586;37.730;2023-08-01T01:52:45;98706.22;;;18.51;100.00
62712;BME280;48772;55.586;37.730;2023-08-01T01:55:10;98716.00;;;18.52;100.00
62712;BME280;48772;55.586;37.730;2023-08-01T01:57:37;98716.44;;;18.56;100.00
62712;BME280;48772;55.586;37.730;2023-08-01T02:00:04;98712.84;;;18.49;100.00
62712;BME280;48772;55.586;37.730;2023-08-01T02:02:39;98696.91;;;18.33;100.00
62712;BME280;48772;55.586;37.730;2023-08-01T02:05:05;98704.16;;;18.32;100.00
62712;BME280;48772;55.586;37.730;2023-08-01T02:07:32;98718.00;;;18.44;100.00
62712;BME280;48772;55.586;37.730;2023-08-01T02:10:01;98718.88;;;18.44;100.00
62712;BME280;48772;55.586;37.730;2023-08-01T02:12:33;98714.09;;;18.46;100.00
62712;BME280;48772;55.586;37.730;2023-08-01T02:15:02;98704.75;;;18.49;100.00
62712;BME280;48772;55.586;37.730;2023-08-01T02:17:31;98707.91;;;18.52;100.00
62712;BME280;48772;55.586;37.730;2023-08-01T02:20:17;98710.47;;;18.60;100.00
62712;BME280;48772;55.586;37.730;2023-08-01T02:22:42;98713.00;;;18.68;100.00
62712;BME280;48772;55.586;37.730;2023-08-01T02:25:08;98717.81;;;18.73;100.00
62712;BME280;48772;55.586;37.730;2023-08-01T02:27:34;98693.69;;;18.65;100.00
62712;BME280;48772;55.586;37.730;2023-08-01T02:30:00;98712.06;;;18.82;100.00
62712;BME280;48772;55.586;37.730;2023-08-01T02:32:26;98707.28;;;18.84;100.00
62712;BME280;48772;55.586;37.730;2023-08-01T02:34:52;98706.28;;;18.85;100.00
62712;BME280;48772;55.586;37.730;2023-08-01T02:37:18;98699.00;;;18.86;100.00
62712;BME280;48772;55.586;37.730;2023-08-01T02:39:43;98703.81;;;18.90;100.00
62712;BME280;48772;55.586;37.730;2023-08-01T02:42:09;98714.03;;;18.95;100.00
62712;BME280;48772;55.586;37.730;2023-08-01T02:44:35;98696.09;;;18.87;100.00
62712;BME280;48772;55.586;37.730;2023-08-01T02:47:01;98711.81;;;19.05;100.00
62712;BME280;48772;55.586;37.730;2023-08-01T02:49:27;98712.22;;;19.08;100.00
62712;BME280;48772;55.586;37.730;2023-08-01T02:51:52;98712.50;;;19.20;100.00
62712;BME280;48772;55.586;37.730;2023-08-01T02:54:18;98702.78;;;19.25;100.00
62712;BME280;48772;55.586;37.730;2023-08-01T02:56:44;98718.38;;;19.30;100.00
62712;BME280;48772;55.586;37.730;2023-08-01T02:59:10;98710.34;;;19.36;100.00
62712;BME280;48772;55.586;37.730;2023-08-01T03:01:37;98699.06;;;19.33;100.00
62712;BME280;48772;55.586;37.730;2023-08-01T03:04:04;98724.75;;;19.50;100.00
62712;BME280;48772;55.586;37.730;2023-08-01T03:06:31;98705.16;;;19.48;100.00
62712;BME280;48772;55.586;37.730;2023-08-01T03:08:57;98715.97;;;19.48;100.00
62712;BME280;48772;55.586;37.730;2023-08-01T03:11:23;98706.22;;;19.47;100.00
62712;BME280;48772;55.586;37.730;2023-08-01T03:13:49;98715.38;;;19.46;100.00
62712;BME280;48772;55.586;37.730;2023-08-01T03:16:15;98718.28;;;19.51;100.00
62712;BME280;48772;55.586;37.730;2023-08-01T03:18:40;98687.94;;;19.49;100.00
62712;BME280;48772;55.586;37.730;2023-08-01T03:21:06;98712.53;;;19.67;100.00
62712;BME280;48772;55.586;37.730;2023-08-01T03:23:32;98699.16;;;19.59;100.00
62712;BME280;48772;55.586;37.730;2023-08-01T03:25:58;98727.53;;;19.70;100.00
62712;BME280;48772;55.586;37.730;2023-08-01T03:28:26;98722.13;;;19.70;100.00
62712;BME280;48772;55.586;37.730;2023-08-01T03:30:52;98695.41;;;19.53;100.00
62712;BME280;48772;55.586;37.730;2023-08-01T03:33:20;98734.41;;;19.85;100.00
62712;BME280;48772;55.586;37.730;2023-08-01T03:35:46;98722.59;;;19.86;100.00
62712;BME280;48772;55.586;37.730;2023-08-01T03:38:12;98729.06;;;20.05;100.00
62712;BME280;48772;55.586;37.730;2023-08-01T03:40:38;98723.03;;;20.09;100.00
62712;BME280;48772;55.586;37.730;2023-08-01T03:43:04;98731.84;;;20.18;100.00
62712;BME280;48772;55.586;37.730;2023-08-01T03:45:33;98726.81;;;20.21;100.00
62712;BME280;48772;55.586;37.730;2023-08-01T03:47:58;98711.00;;;20.18;100.00
62712;BME280;48772;55.586;37.730;2023-08-01T03:50:26;98713.72;;;20.31;100.00
62712;BME280;48772;55.586;37.730;2023-08-01T03:52:52;98733.75;;;20.50;100.00
62712;BME280;48772;55.586;37.730;2023-08-01T03:55:18;98732.69;;;20.57;100.00
62712;BME280;48772;55.586;37.730;2023-08-01T03:57:45;98735.81;;;20.67;100.00
62712;BME280;48772;55.586;37.730;2023-08-01T04:00:12;98735.59;;;20.75;100.00
62712;BME280;48772;55.586;37.730;2023-08-01T04:02:44;98740.19;;;20.81;100.00
62712;BME280;48772;55.586;37.730;2023-08-01T04:05:10;98738.50;;;20.80;100.00
62712;BME280;48772;55.586;37.730;2023-08-01T04:07:37;98738.91;;;20.90;100.00
62712;BME280;48772;55.586;37.730;2023-08-01T04:10:03;98728.28;;;20.89;100.00
62712;BME280;48772;55.586;37.730;2023-08-01T04:12:34;98715.38;;;20.97;100.00
62712;BME280;48772;55.586;37.730;2023-08-01T04:15:00;98745.19;;;21.10;100.00
62712;BME280;48772;55.586;37.730;2023-08-01T04:17:26;98717.66;;;21.07;100.00
62712;BME280;48772;55.586;37.730;2023-08-01T04:19:52;98730.09;;;21.27;100.00
62712;BME280;48772;55.586;37.730;2023-08-01T04:22:18;98725.91;;;21.38;100.00
62712;BME280;48772;55.586;37.730;2023-08-01T04:24:44;98739.19;;;21.59;100.00
62712;BME280;48772;55.586;37.730;2023-08-01T04:27:10;98733.75;;;21.59;100.00
62712;BME280;48772;55.586;37.730;2023-08-01T04:29:36;98730.41;;;21.63;100.00
62712;BME280;48772;55.586;37.730;2023-08-01T04:32:02;98738.31;;;21.71;100.00
62712;BME280;48772;55.586;37.730;2023-08-01T04:34:27;98726.84;;;21.69;100.00
62712;BME280;48772;55.586;37.730;2023-08-01T04:36:53;98726.41;;;21.66;100.00
62712;BME280;48772;55.586;37.730;2023-08-01T04:39:19;98717.47;;;21.72;100.00
62712;BME280;48772;55.586;37.730;2023-08-01T04:41:45;98740.13;;;21.90;100.00
62712;BME280;48772;55.586;37.730;2023-08-01T04:44:11;98741.56;;;21.93;100.00
62712;BME280;48772;55.586;37.730;2023-08-01T04:46:36;98743.00;;;21.95;100.00
62712;BME280;48772;55.586;37.730;2023-08-01T04:49:02;98741.91;;;22.03;100.00
62712;BME280;48772;55.586;37.730;2023-08-01T04:51:28;98728.16;;;21.98;100.00
62712;BME280;48772;55.586;37.730;2023-08-01T04:53:56;98751.06;;;22.15;100.00
62712;BME280;48772;55.586;37.730;2023-08-01T04:56:22;98716.22;;;22.05;100.00
62712;BME280;48772;55.586;37.730;2023-08-01T04:58:48;98749.25;;;22.33;100.00
62712;BME280;48772;55.586;37.730;2023-08-01T05:01:14;98729.84;;;22.30;100.00
62712;BME280;48772;55.586;37.730;2023-08-01T05:03:40;98740.75;;;22.55;100.00
62712;BME280;48772;55.586;37.730;2023-08-01T05:06:05;98726.91;;;22.63;100.00
62712;BME280;48772;55.586;37.730;2023-08-01T05:08:31;98727.25;;;22.73;100.00
62712;BME280;48772;55.586;37.730;2023-08-01T05:10:57;98738.38;;;22.89;100.00
62712;BME280;48772;55.586;37.730;2023-08-01T05:13:23;98742.03;;;23.01;100.00
62712;BME280;48772;55.586;37.730;2023-08-01T05:15:48;98727.75;;;23.06;100.00
62712;BME280;48772;55.586;37.730;2023-08-01T05:18:16;98731.59;;;23.23;100.00
62712;BME280;48772;55.586;37.730;2023-08-01T05:20:43;98739.47;;;23.31;100.00
62712;BME280;48772;55.586;37.730;2023-08-01T05:23:08;98745.50;;;23.33;100.00
62712;BME280;48772;55.586;37.730;2023-08-01T05:25:34;98743.75;;;23.38;100.00
62712;BME280;48772;55.586;37.730;2023-08-01T05:28:00;98686.34;;;23.04;100.00
62712;BME280;48772;55.586;37.730;2023-08-01T05:30:26;98726.00;;;23.36;100.00
62712;BME280;48772;55.586;37.730;2023-08-01T05:32:52;98747.63;;;23.67;100.00
62712;BME280;48772;55.586;37.730;2023-08-01T05:35:20;98743.38;;;23.71;100.00
62712;BME280;48772;55.586;37.730;2023-08-01T05:37:46;98750.47;;;23.90;100.00
62712;BME280;48772;55.586;37.730;2023-08-01T05:40:12;98747.34;;;24.04;100.00
62712;BME280;48772;55.586;37.730;2023-08-01T05:42:38;98745.59;;;24.10;100.00
62712;BME280;48772;55.586;37.730;2023-08-01T05:45:05;98754.03;;;24.20;100.00
62712;BME280;48772;55.586;37.730;2023-08-01T05:47:31;98724.06;;;24.20;100.00
62712;BME280;48772;55.586;37.730;2023-08-01T05:49:57;98726.47;;;24.28;100.00
62712;BME280;48772;55.586;37.730;2023-08-01T05:52:23;98729.47;;;24.38;100.00
62712;BME280;48772;55.586;37.730;2023-08-01T05:54:49;98733.53;;;24.47;100.00
62712;BME280;48772;55.586;37.730;2023-08-01T05:57:15;98735.63;;;24.45;100.00
62712;BME280;48772;55.586;37.730;2023-08-01T05:59:41;98725.47;;;24.52;100.00
62712;BME280;48772;55.586;37.730;2023-08-01T06:02:07;98749.13;;;24.69;100.00
62712;BME280;48772;55.586;37.730;2023-08-01T06:04:33;98739.88;;;24.82;100.00
62712;BME280;48772;55.586;37.730;2023-08-01T06:06:58;98733.38;;;24.94;100.00
62712;BME280;48772;55.586;37.730;2023-08-01T06:09:25;98738.22;;;25.04;100.00
62712;BME280;48772;55.586;37.730;2023-08-01T06:11:51;98740.22;;;25.20;100.00
62712;BME280;48772;55.586;37.730;2023-08-01T06:14:17;98751.84;;;25.27;100.00
62712;BME280;48772;55.586;37.730;2023-08-01T06:16:43;98750.09;;;25.32;100.00
62712;BME280;48772;55.586;37.730;2023-08-01T06:19:09;98750.34;;;25.42;100.00
62712;BME280;48772;55.586;37.730;2023-08-01T06:21:35;98742.88;;;25.38;100.00
62712;BME280;48772;55.586;37.730;2023-08-01T06:24:04;98744.66;;;25.44;100.00
62712;BME280;48772;55.586;37.730;2023-08-01T06:26:29;98743.09;;;25.48;100.00
62712;BME280;48772;55.586;37.730;2023-08-01T06:28:55;98754.94;;;25.65;100.00
62712;BME280;48772;55.586;37.730;2023-08-01T06:31:21;98743.63;;;25.73;100.00
62712;BME280;48772;55.586;37.730;2023-08-01T06:33:47;98736.97;;;25.81;100.00
62712;BME280;48772;55.586;37.730;2023-08-01T06:36:13;98738.84;;;25.92;100.00
62712;BME280;48772;55.586;37.730;2023-08-01T06:38:39;98741.91;;;26.07;100.00
62712;BME280;48772;55.586;37.730;2023-08-01T06:41:05;98748.38;;;26.17;100.00
62712;BME280;48772;55.586;37.730;2023-08-01T06:43:31;98741.78;;;26.30;100.00
62712;BME280;48772;55.586;37.730;2023-08-01T06:45:56;98737.31;;;26.40;100.00
62712;BME280;48772;55.586;37.730;2023-08-01T06:48:22;98737.19;;;26.47;100.00
62712;BME280;48772;55.586;37.730;2023-08-01T06:50:48;98735.09;;;26.54;100.00
62712;BME280;48772;55.586;37.730;2023-08-01T06:53:14;98720.78;;;26.47;100.00
62712;BME280;48772;55.586;37.730;2023-08-01T06:55:39;98702.72;;;26.62;100.00
62712;BME280;48772;55.586;37.730;2023-08-01T06:58:05;98751.56;;;26.87;100.00
62712;BME280;48772;55.586;37.730;2023-08-01T07:00:31;98736.09;;;26.92;100.00
62712;BME280;48772;55.586;37.730;2023-08-01T07:02:57;98742.53;;;27.03;100.00
62712;BME280;48772;55.586;37.730;2023-08-01T07:05:23;98743.03;;;26.83;100.00
62712;BME280;48772;55.586;37.730;2023-08-01T07:07:50;98742.84;;;27.06;100.00
62712;BME280;48772;55.586;37.730;2023-08-01T07:10:15;98735.03;;;27.31;100.00
62712;BME280;48772;55.586;37.730;2023-08-01T07:12:41;98738.34;;;27.50;100.00
62712;BME280;48772;55.586;37.730;2023-08-01T07:15:08;98726.97;;;27.63;100.00
62712;BME280;48772;55.586;37.730;2023-08-01T07:17:34;98729.84;;;27.73;100.00
62712;BME280;48772;55.586;37.730;2023-08-01T07:19:59;98748.00;;;27.57;100.00
62712;BME280;48772;55.586;37.730;2023-08-01T07:22:25;98741.06;;;27.71;100.00
62712;BME280;48772;55.586;37.730;2023-08-01T07:24:54;98741.72;;;27.78;100.00
62712;BME280;48772;55.586;37.730;2023-08-01T07:27:21;98733.50;;;27.78;100.00
62712;BME280;48772;55.586;37.730;2023-08-01T07:29:47;98746.56;;;27.71;100.00
62712;BME280;48772;55.586;37.730;2023-08-01T07:32:14;98742.75;;;27.94;100.00
62712;BME280;48772;55.586;37.730;2023-08-01T07:34:40;98740.34;;;28.24;100.00
62712;BME280;48772;55.586;37.730;2023-08-01T07:37:06;98724.13;;;28.17;100.00
62712;BME280;48772;55.586;37.730;2023-08-01T07:39:31;98744.56;;;28.32;100.00
62712;BME280;48772;55.586;37.730;2023-08-01T07:41:59;98715.53;;;28.36;100.00
62712;BME280;48772;55.586;37.730;2023-08-01T07:44:25;98738.31;;;28.63;100.00
62712;BME280;48772;55.586;37.730;2023-08-01T07:46:51;98735.09;;;28.44;100.00
62712;BME280;48772;55.586;37.730;2023-08-01T07:49:16;98739.44;;;28.67;100.00
62712;BME280;48772;55.586;37.730;2023-08-01T07:51:42;98718.94;;;28.74;100.00
62712;BME280;48772;55.586;37.730;2023-08-01T07:54:08;98736.56;;;28.83;100.00
62712;BME280;48772;55.586;37.730;2023-08-01T07:56:34;98728.31;;;28.83;100.00
62712;BME280;48772;55.586;37.730;2023-08-01T07:58:59;98738.44;;;28.78;100.00
62712;BME280;48772;55.586;37.730;2023-08-01T08:01:25;98731.59;;;28.80;100.00
62712;BME280;48772;55.586;37.730;2023-08-01T08:03:51;98733.38;;;28.96;100.00
62712;BME280;48772;55.586;37.730;2023-08-01T08:06:17;98708.41;;;28.98;100.00
62712;BME280;48772;55.586;37.730;2023-08-01T08:08:42;98725.72;;;29.35;100.00
62712;BME280;48772;55.586;37.730;2023-08-01T08:11:08;98733.84;;;29.61;100.00
62712;BME280;48772;55.586;37.730;2023-08-01T08:13:34;98724.16;;;29.54;100.00
62712;BME280;48772;55.586;37.730;2023-08-01T08:16:00;98691.81;;;29.61;100.00
62712;BME280;48772;55.586;37.730;2023-08-01T08:18:26;98699.50;;;29.64;100.00
62712;BME280;48772;55.586;37.730;2023-08-01T08:20:52;98719.69;;;29.94;100.00
62712;BME280;48772;55.586;37.730;2023-08-01T08:23:18;98719.69;;;29.94;100.00
62712;BME280;48772;55.586;37.730;2023-08-01T08:25:44;98717.22;;;29.98;100.00
62712;BME280;48772;55.586;37.730;2023-08-01T08:28:12;98700.72;;;29.93;100.00
62712;BME280;48772;55.586;37.730;2023-08-01T08:30:39;98709.91;;;29.57;100.00
62712;BME280;48772;55.586;37.730;2023-08-01T08:33:05;98712.16;;;29.70;100.00
62712;BME280;48772;55.586;37.730;2023-08-01T08:35:35;98702.84;;;29.71;100.00
62712;BME280;48772;55.586;37.730;2023-08-01T08:38:03;98724.38;;;29.94;100.00
62712;BME280;48772;55.586;37.730;2023-08-01T08:40:32;98698.78;;;29.88;100.00
62712;BME280;48772;55.586;37.730;2023-08-01T08:43:01;98714.97;;;29.75;100.00
62712;BME280;48772;55.586;37.730;2023-08-01T08:45:34;98724.41;;;30.04;100.00
62712;BME280;48772;55.586;37.730;2023-08-01T08:48:02;98702.28;;;29.22;100.00
62712;BME280;48772;55.586;37.730;2023-08-01T08:50:33;98715.13;;;28.49;100.00
62712;BME280;48772;55.586;37.730;2023-08-01T08:53:04;98685.63;;;28.34;100.00
62712;BME280;48772;55.586;37.730;2023-08-01T08:55:45;98693.44;;;29.15;100.00
62712;BME280;48772;55.586;37.730;2023-08-01T08:58:11;98708.16;;;29.97;100.00
62712;BME280;48772;55.586;37.730;2023-08-01T09:00:37;98721.66;;;30.14;100.00
62712;BME280;48772;55.586;37.730;2023-08-01T09:03:05;98712.91;;;30.17;100.00
62712;BME280;48772;55.586;37.730;2023-08-01T09:05:58;98690.59;;;30.13;100.00
62712;BME280;48772;55.586;37.730;2023-08-01T09:08:21;98699.75;;;30.54;100.00
62712;BME280;48772;55.586;37.730;2023-08-01T09:10:47;98701.19;;;30.76;100.00
62712;BME280;48772;55.586;37.730;2023-08-01T09:13:14;98705.81;;;30.46;100.00
62712;BME280;48772;55.586;37.730;2023-08-01T09:15:41;98719.81;;;30.34;100.00
62712;BME280;48772;55.586;37.730;2023-08-01T09:18:09;98709.66;;;30.35;100.00
62712;BME280;48772;55.586;37.730;2023-08-01T09:20:48;98714.63;;;30.53;100.00
62712;BME280;48772;55.586;37.730;2023-08-01T09:23:16;98694.59;;;30.82;100.00
62712;BME280;48772;55.586;37.730;2023-08-01T09:25:43;98696.75;;;31.00;100.00
62712;BME280;48772;55.586;37.730;2023-08-01T09:28:23;98709.69;;;30.90;100.00
62712;BME280;48772;55.586;37.730;2023-08-01T09:30:50;98707.22;;;30.53;100.00
62712;BME280;48772;55.586;37.730;2023-08-01T09:33:17;98706.41;;;30.83;100.00
62712;BME280;48772;55.586;37.730;2023-08-01T09:35:43;98703.34;;;31.14;100.00
62712;BME280;48772;55.586;37.730;2023-08-01T09:38:13;98692.28;;;31.40;100.00
62712;BME280;48772;55.586;37.730;2023-08-01T09:40:40;98705.22;;;31.54;100.00
62712;BME280;48772;55.586;37.730;2023-08-01T09:43:06;98710.69;;;31.59;100.00
62712;BME280;48772;55.586;37.730;2023-08-01T09:45:32;98704.47;;;30.78;100.00
62712;BME280;48772;55.586;37.730;2023-08-01T09:48:00;98683.78;;;30.61;100.00
62712;BME280;48772;55.586;37.730;2023-08-01T09:50:26;98676.00;;;30.08;100.00
62712;BME280;48772;55.586;37.730;2023-08-01T09:52:52;98693.94;;;30.20;100.00
62712;BME280;48772;55.586;37.730;2023-08-01T09:55:32;98676.63;;;30.50;100.00
62712;BME280;48772;55.586;37.730;2023-08-01T09:57:59;98681.06;;;30.76;100.00
62712;BME280;48772;55.586;37.730;2023-08-01T10:00:29;98694.56;;;30.97;100.00
62712;BME280;48772;55.586;37.730;2023-08-01T10:02:59;98690.94;;;31.17;100.00
62712;BME280;48772;55.586;37.730;2023-08-01T10:05:32;98683.78;;;31.06;100.00
62712;BME280;48772;55.586;37.730;2023-08-01T10:08:01;98682.72;;;30.82;100.00
62712;BME280;48772;55.586;37.730;2023-08-01T10:10:28;98663.66;;;31.10;100.00
62712;BME280;48772;55.586;37.730;2023-08-01T10:12:56;98679.69;;;30.83;100.00
62712;BME280;48772;55.586;37.730;2023-08-01T10:15:24;98662.22;;;30.03;100.00
62712;BME280;48772;55.586;37.730;2023-08-01T10:17:52;98683.59;;;29.71;100.00
62712;BME280;48772;55.586;37.730;2023-08-01T10:20:20;98677.44;;;29.49;100.00
62712;BME280;48772;55.586;37.730;2023-08-01T10:22:49;98685.03;;;29.32;100.00
62712;BME280;48772;55.586;37.730;2023-08-01T10:25:16;98664.03;;;28.74;100.00
62712;BME280;48772;55.586;37.730;2023-08-01T10:27:44;98678.94;;;28.88;100.00
62712;BME280;48772;55.586;37.730;2023-08-01T10:30:10;98687.72;;;28.85;100.00
62712;BME280;48772;55.586;37.730;2023-08-01T10:32:39;98681.25;;;28.65;100.00
62712;BME280;48772;55.586;37.730;2023-08-01T10:35:05;98676.84;;;28.64;100.00
62712;BME280;48772;55.586;37.730;2023-08-01T10:37:45;98682.38;;;28.69;100.00
62712;BME280;48772;55.586;37.730;2023-08-01T10:40:13;98687.94;;;28.47;100.00
62712;BME280;48772;55.586;37.730;2023-08-01T10:42:43;98657.47;;;28.44;100.00
62712;BME280;48772;55.586;37.730;2023-08-01T10:45:21;98675.19;;;28.63;100.00
62712;BME280;48772;55.586;37.730;2023-08-01T10:47:50;98664.25;;;28.68;100.00
62712;BME280;48772;55.586;37.730;2023-08-01T10:50:17;98654.34;;;28.62;100.00
62712;BME280;48772;55.586;37.730;2023-08-01T10:52:43;98662.69;;;28.77;100.00
62712;BME280;48772;55.586;37.730;2023-08-01T10:55:10;98674.19;;;29.10;100.00
62712;BME280;48772;55.586;37.730;2023-08-01T10:57:39;98665.47;;;29.80;100.00
62712;BME280;48772;55.586;37.730;2023-08-01T11:00:06;98657.81;;;29.82;100.00
62712;BME280;48772;55.586;37.730;2023-08-01T11:02:36;98671.59;;;30.07;100.00
62712;BME280;48772;55.586;37.730;2023-08-01T11:05:05;98659.41;;;29.68;100.00
62712;BME280;48772;55.586;37.730;2023-08-01T11:07:33;98658.66;;;29.87;100.00
62712;BME280;48772;55.586;37.730;2023-08-01T11:10:12;98662.38;;;29.61;100.00
62712;BME280;48772;55.586;37.730;2023-08-01T11:12:43;98638.72;;;29.04;100.00
62712;BME280;48772;55.586;37.730;2023-08-01T11:15:11;98660.28;;;28.90;100.00
62712;BME280;48772;55.586;37.730;2023-08-01T11:17:49;98633.88;;;28.79;100.00
62712;BME280;48772;55.586;37.730;2023-08-01T11:20:17;98653.50;;;29.44;100.00
62712;BME280;48772;55.586;37.730;2023-08-01T11:22:52;98637.94;;;29.60;100.00
62712;BME280;48772;55.586;37.730;2023-08-01T11:25:19;98655.59;;;29.89;100.00
62712;BME280;48772;55.586;37.730;2023-08-01T11:27:45;98642.72;;;29.38;100.00
62712;BME280;48772;55.586;37.730;2023-08-01T11:30:12;98655.34;;;29.29;100.00
62712;BME280;48772;55.586;37.730;2023-08-01T11:32:38;98664.69;;;29.28;100.00
62712;BME280;48772;55.586;37.730;2023-08-01T11:35:05;98644.06;;;29.25;100.00
62712;BME280;48772;55.586;37.730;2023-08-01T11:37:33;98653.69;;;29.84;100.00
62712;BME280;48772;55.586;37.730;2023-08-01T11:39:59;98621.91;;;29.52;100.00
62712;BME280;48772;55.586;37.730;2023-08-01T11:42:30;98647.59;;;29.77;100.00
62712;BME280;48772;55.586;37.730;2023-08-01T11:45:08;98653.97;;;29.93;100.00
62712;BME280;48772;55.586;37.730;2023-08-01T11:47:34;98640.59;;;30.46;100.00
62712;BME280;48772;55.586;37.730;2023-08-01T11:50:00;98639.22;;;30.49;100.00
62712;BME280;48772;55.586;37.730;2023-08-01T11:52:28;98588.50;;;29.85;100.00
62712;BME280;48772;55.586;37.730;2023-08-01T11:54:54;98642.69;;;29.84;100.00
62712;BME280;48772;55.586;37.730;2023-08-01T11:57:23;98630.72;;;29.54;100.00
62712;BME280;48772;55.586;37.730;2023-08-01T11:59:54;98601.50;;;29.33;100.00
62712;BME280;48772;55.586;37.730;2023-08-01T12:02:45;98601.09;;;29.61;100.00
62712;BME280;48772;55.586;37.730;2023-08-01T12:05:11;98593.47;;;29.88;100.00
62712;BME280;48772;55.586;37.730;2023-08-01T12:07:37;98627.31;;;30.08;100.00
62712;BME280;48772;55.586;37.730;2023-08-01T12:10:03;98595.06;;;29.74;100.00
62712;BME280;48772;55.586;37.730;2023-08-01T12:12:29;98631.91;;;29.78;100.00
62712;BME280;48772;55.586;37.730;2023-08-01T12:14:56;98588.78;;;29.93;100.00
62712;BME280;48772;55.586;37.730;2023-08-01T12:17:25;98602.34;;;30.20;100.00
62712;BME280;48772;55.586;37.730;2023-08-01T12:19:51;98566.03;;;30.23;100.00
62712;BME280;48772;55.586;37.730;2023-08-01T12:22:17;98615.56;;;30.78;100.00
62712;BME280;48772;55.586;37.730;2023-08-01T12:24:43;98615.50;;;30.98;100.00
62712;BME280;48772;55.586;37.730;2023-08-01T12:27:09;98623.19;;;31.06;100.00
62712;BME280;48772;55.586;37.730;2023-08-01T12:29:36;98607.84;;;30.85;100.00
62712;BME280;48772;55.586;37.730;2023-08-01T12:32:02;98613.50;;;31.24;100.00
62712;BME280;48772;55.586;37.730;2023-08-01T12:34:29;98596.25;;;30.73;100.00
62712;BME280;48772;55.586;37.730;2023-08-01T12:36:55;98616.38;;;30.43;100.00
62712;BME280;48772;55.586;37.730;2023-08-01T12:39:20;98619.94;;;30.44;100.00
62712;BME280;48772;55.586;37.730;2023-08-01T12:41:46;98594.63;;;30.42;100.00